createdAt,value
2022-10-12T00:00:10.332Z,22.08
2022-10-12T00:02:40.907Z,22.07
2022-10-12T00:05:08.511Z,22.07
2022-10-12T00:07:35.815Z,22.05
2022-10-12T00:10:03.746Z,22.06
2022-10-12T00:12:31.125Z,22.08
2022-10-12T00:14:58.253Z,22.18
2022-10-12T00:17:25.383Z,22.23
2022-10-12T00:19:52.784Z,22.14
2022-10-12T00:22:19.900Z,22.10
2022-10-12T00:24:47.025Z,22.20
2022-10-12T00:27:14.394Z,22.19
2022-10-12T00:29:41.584Z,22.17
2022-10-12T00:32:09.423Z,22.08
2022-10-12T00:34:36.803Z,22.17
2022-10-12T00:37:03.907Z,22.07
2022-10-12T00:39:31.025Z,22.07
2022-10-12T00:41:58.399Z,22.06
2022-10-12T00:44:40.553Z,22.04
2022-10-12T00:47:29.796Z,21.96
2022-10-12T00:49:58.522Z,22.00
2022-10-12T00:52:28.167Z,21.96
2022-10-12T00:54:55.308Z,21.94
2022-10-12T00:57:22.497Z,21.95
2022-10-12T00:59:54.843Z,21.95
2022-10-12T01:02:23.069Z,21.92
2022-10-12T01:04:50.553Z,21.78
2022-10-12T01:07:17.664Z,21.83
2022-10-12T01:09:44.785Z,21.86
2022-10-12T01:12:12.142Z,21.85
2022-10-12T01:14:39.244Z,21.91
2022-10-12T01:17:24.856Z,21.82
2022-10-12T01:20:01.515Z,21.74
2022-10-12T01:22:28.653Z,21.29
2022-10-12T01:25:08.436Z,21.42
2022-10-12T01:27:54.347Z,21.51
2022-10-12T01:30:22.823Z,21.66
2022-10-12T01:32:52.848Z,21.65
2022-10-12T01:35:39.925Z,21.62
2022-10-12T01:38:22.614Z,21.53
2022-10-12T01:41:08.324Z,21.28
2022-10-12T01:43:36.586Z,21.34
2022-10-12T01:46:05.682Z,21.52
2022-10-12T01:48:32.796Z,21.58
2022-10-12T01:51:01.132Z,21.77
2022-10-12T01:53:28.225Z,21.75
2022-10-12T01:55:57.514Z,21.64
2022-10-12T01:58:40.240Z,21.49
2022-10-12T02:01:10.291Z,21.62
2022-10-12T02:03:48.689Z,21.69
2022-10-12T02:06:16.971Z,21.69
2022-10-12T02:08:56.369Z,21.82
2022-10-12T02:11:24.017Z,21.88
2022-10-12T02:13:51.812Z,21.64
2022-10-12T02:16:19.393Z,21.81
2022-10-12T02:18:47.917Z,21.75
2022-10-12T02:21:16.297Z,21.73
2022-10-12T02:23:44.732Z,21.90
2022-10-12T02:26:12.505Z,21.85
2022-10-12T02:28:39.715Z,21.87
2022-10-12T02:31:07.017Z,21.90
2022-10-12T02:33:36.669Z,21.90
2022-10-12T02:36:05.835Z,21.94
2022-10-12T02:38:33.430Z,21.93
2022-10-12T02:41:09.147Z,22.04
2022-10-12T02:43:37.281Z,21.91
2022-10-12T02:46:05.006Z,21.78
2022-10-12T02:48:32.100Z,21.79
2022-10-12T02:50:59.240Z,21.69
2022-10-12T02:53:26.685Z,21.70
2022-10-12T02:55:56.443Z,21.64
2022-10-12T02:58:23.562Z,21.56
2022-10-12T03:00:50.975Z,21.41
2022-10-12T03:03:18.119Z,21.46
2022-10-12T03:05:45.268Z,21.50
2022-10-12T03:08:12.646Z,21.43
2022-10-12T03:10:39.769Z,21.45
2022-10-12T03:13:06.924Z,21.32
2022-10-12T03:15:34.311Z,21.36
2022-10-12T03:18:01.427Z,21.30
2022-10-12T03:20:28.554Z,21.38
2022-10-12T03:22:55.942Z,21.35
2022-10-12T03:25:23.047Z,21.33
2022-10-12T03:27:50.172Z,21.45
2022-10-12T03:30:17.601Z,21.33
2022-10-12T03:32:44.729Z,21.53
2022-10-12T03:35:12.942Z,21.33
2022-10-12T03:37:40.741Z,21.55
2022-10-12T03:40:08.548Z,21.44
2022-10-12T03:42:35.656Z,21.31
2022-10-12T03:45:03.035Z,21.37
2022-10-12T03:47:31.502Z,21.42
2022-10-12T03:49:58.627Z,21.34
2022-10-12T03:52:26.023Z,21.37
2022-10-12T03:54:53.137Z,21.47
2022-10-12T03:57:20.235Z,21.24
2022-10-12T03:59:47.696Z,21.43
2022-10-12T04:02:17.056Z,21.40
2022-10-12T04:04:44.717Z,21.54
2022-10-12T04:07:11.811Z,21.57
2022-10-12T04:09:38.938Z,21.50
2022-10-12T04:12:06.613Z,21.51
2022-10-12T04:14:33.746Z,21.30
2022-10-12T04:17:00.876Z,21.23
2022-10-12T04:19:28.606Z,21.29
2022-10-12T04:21:55.737Z,21.30
2022-10-12T04:24:22.867Z,21.27
2022-10-12T04:26:50.254Z,21.22
2022-10-12T04:29:17.364Z,21.30
2022-10-12T04:31:46.627Z,20.78
2022-10-12T04:34:13.996Z,20.96
2022-10-12T04:36:41.146Z,21.09
2022-10-12T04:39:08.376Z,21.22
2022-10-12T04:41:35.787Z,21.28
2022-10-12T04:44:02.925Z,21.03
2022-10-12T04:46:30.042Z,21.14
2022-10-12T04:48:57.427Z,21.16
2022-10-12T04:51:24.942Z,21.19
2022-10-12T04:53:52.115Z,21.22
2022-10-12T04:56:19.521Z,21.08
2022-10-12T04:58:46.638Z,20.85
2022-10-12T05:01:13.808Z,20.74
2022-10-12T05:03:42.231Z,21.13
2022-10-12T05:06:09.501Z,21.13
2022-10-12T05:08:36.626Z,21.12
2022-10-12T05:11:04.012Z,21.02
2022-10-12T05:13:31.261Z,20.93
2022-10-12T05:15:58.363Z,21.11
2022-10-12T05:18:25.745Z,20.85
2022-10-12T05:20:56.864Z,20.97
2022-10-12T05:23:24.396Z,21.05
2022-10-12T05:25:52.044Z,21.10
2022-10-12T05:28:19.193Z,21.13
2022-10-12T05:30:48.937Z,21.10
2022-10-12T05:33:16.386Z,21.09
2022-10-12T05:35:47.471Z,21.19
2022-10-12T05:38:16.173Z,21.26
2022-10-12T05:40:43.667Z,21.44
2022-10-12T05:43:10.786Z,21.47
2022-10-12T05:45:37.905Z,21.30
2022-10-12T05:48:05.382Z,21.23
2022-10-12T05:50:32.484Z,21.31
2022-10-12T05:52:59.636Z,21.35
2022-10-12T05:55:26.999Z,20.95
2022-10-12T05:57:54.169Z,20.51
2022-10-12T06:00:21.704Z,21.17
2022-10-12T06:02:49.073Z,20.52
2022-10-12T06:05:16.251Z,20.90
2022-10-12T06:07:43.375Z,21.29
2022-10-12T06:10:10.752Z,20.10
2022-10-12T06:12:38.024Z,20.99
2022-10-12T06:15:05.653Z,21.14
2022-10-12T06:17:33.035Z,21.72
2022-10-12T06:20:00.143Z,21.29
2022-10-12T06:22:27.273Z,20.89
2022-10-12T06:24:54.742Z,20.59
2022-10-12T06:27:21.880Z,20.51
2022-10-12T06:29:49.005Z,20.59
2022-10-12T06:32:16.393Z,20.63
2022-10-12T06:34:43.568Z,20.78
2022-10-12T06:37:20.467Z,21.23
2022-10-12T06:39:58.096Z,21.07
2022-10-12T06:42:25.237Z,20.97
2022-10-12T06:44:53.605Z,20.98
2022-10-12T06:47:20.974Z,21.20
2022-10-12T06:49:48.103Z,20.64
2022-10-12T06:52:15.208Z,21.09
2022-10-12T06:54:42.579Z,20.10
2022-10-12T06:57:09.705Z,20.84
2022-10-12T06:59:36.832Z,20.86
2022-10-12T07:02:04.306Z,20.67
2022-10-12T07:04:31.479Z,20.40
2022-10-12T07:06:58.666Z,20.60
2022-10-12T07:09:26.064Z,20.48
2022-10-12T07:11:53.468Z,20.96
2022-10-12T07:14:20.587Z,20.68
2022-10-12T07:16:52.907Z,21.04
2022-10-12T07:19:22.129Z,20.26
2022-10-12T07:21:49.539Z,20.85
2022-10-12T07:24:16.634Z,20.42
2022-10-12T07:26:43.739Z,21.14
2022-10-12T07:29:11.131Z,21.30
2022-10-12T07:31:38.297Z,20.20
2022-10-12T07:34:05.436Z,19.79
2022-10-12T07:36:57.612Z,19.44
2022-10-12T07:39:20.111Z,20.13
2022-10-12T07:41:47.492Z,20.46
2022-10-12T07:44:14.634Z,19.47
2022-10-12T07:46:41.826Z,20.63
2022-10-12T07:49:09.299Z,21.07
2022-10-12T07:51:37.544Z,20.52
2022-10-12T07:54:04.652Z,20.55
2022-10-12T07:56:32.052Z,21.21
2022-10-12T07:58:59.173Z,20.72
2022-10-12T08:01:29.858Z,21.46
2022-10-12T08:04:01.173Z,21.42
2022-10-12T08:06:30.289Z,20.53
2022-10-12T08:08:58.211Z,19.94
2022-10-12T08:11:25.650Z,20.44
2022-10-12T08:13:53.894Z,20.74
2022-10-12T08:16:21.607Z,21.16
2022-10-12T08:18:48.716Z,20.31
2022-10-12T08:21:16.633Z,20.11
2022-10-12T08:23:45.253Z,20.79
2022-10-12T08:26:12.763Z,21.28
2022-10-12T08:28:40.078Z,21.56
2022-10-12T08:31:12.000Z,21.75
2022-10-12T08:33:39.221Z,20.81
2022-10-12T08:36:06.696Z,19.73
2022-10-12T08:38:34.698Z,20.92
2022-10-12T08:41:07.156Z,19.76
2022-10-12T08:43:56.965Z,19.86
2022-10-12T08:46:24.086Z,20.93
2022-10-12T08:48:54.657Z,20.86
2022-10-12T08:51:22.782Z,20.46
2022-10-12T08:53:51.478Z,21.46
2022-10-12T08:56:19.750Z,21.65
2022-10-12T08:58:47.479Z,21.73
2022-10-12T09:01:36.859Z,22.05
2022-10-12T09:04:16.533Z,22.43
2022-10-12T09:06:47.453Z,22.16
2022-10-12T09:09:41.633Z,21.79
2022-10-12T09:12:18.137Z,21.20
2022-10-12T09:14:45.526Z,21.37
2022-10-12T09:17:21.570Z,22.24
2022-10-12T09:19:48.982Z,22.27
2022-10-12T09:22:19.356Z,22.97
2022-10-12T09:24:47.110Z,23.14
2022-10-12T09:27:15.956Z,22.59
2022-10-12T09:29:45.311Z,23.08
2022-10-12T09:32:31.530Z,23.13
2022-10-12T09:34:59.127Z,23.04
2022-10-12T09:37:27.619Z,23.65
2022-10-12T09:39:54.736Z,21.94
2022-10-12T09:42:22.924Z,21.92
2022-10-12T09:44:50.644Z,22.78
2022-10-12T09:47:20.691Z,22.43
2022-10-12T09:49:50.248Z,22.54
2022-10-12T09:52:21.316Z,22.92
2022-10-12T09:54:53.303Z,22.28
2022-10-12T09:57:25.382Z,21.79
2022-10-12T09:59:52.783Z,21.85
2022-10-12T10:02:20.625Z,21.48
2022-10-12T10:04:48.933Z,22.12
2022-10-12T10:07:30.446Z,22.75
2022-10-12T10:10:03.677Z,23.02
2022-10-12T10:12:30.833Z,22.37
2022-10-12T10:14:59.234Z,23.28
2022-10-12T10:17:27.517Z,23.21
2022-10-12T10:19:55.676Z,23.40
2022-10-12T10:22:23.316Z,22.16
2022-10-12T10:24:59.964Z,23.13
2022-10-12T10:27:37.289Z,23.54
2022-10-12T10:30:25.432Z,22.73
2022-10-12T10:33:07.769Z,23.67
2022-10-12T10:35:34.893Z,23.00
2022-10-12T10:38:03.861Z,23.23
2022-10-12T10:40:31.719Z,23.79
2022-10-12T10:43:00.745Z,22.36
2022-10-12T10:45:29.578Z,23.72
2022-10-12T10:48:01.465Z,23.54
2022-10-12T10:50:38.767Z,23.86
2022-10-12T10:53:06.888Z,22.10
2022-10-12T10:55:49.546Z,21.83
2022-10-12T10:58:19.705Z,23.00
2022-10-12T11:00:47.504Z,23.21
2022-10-12T11:03:25.561Z,22.22
2022-10-12T11:06:07.884Z,23.41
2022-10-12T11:08:35.008Z,22.33
2022-10-12T11:11:13.154Z,23.04
2022-10-12T11:13:57.206Z,23.69
2022-10-12T11:16:41.304Z,23.91
2022-10-12T11:19:26.855Z,23.57
2022-10-12T11:21:55.646Z,24.48
2022-10-12T11:24:55.223Z,24.21
2022-10-12T11:27:27.815Z,24.30
2022-10-12T11:30:08.356Z,23.94
2022-10-12T11:32:43.829Z,22.90
2022-10-12T11:35:14.370Z,23.93
2022-10-12T11:37:47.675Z,24.32
2022-10-12T11:40:31.052Z,23.87
2022-10-12T11:43:08.039Z,23.96
2022-10-12T11:45:36.755Z,24.34
2022-10-12T11:48:12.169Z,24.75
2022-10-12T11:50:40.549Z,23.38
2022-10-12T11:53:08.729Z,23.41
2022-10-12T11:55:35.797Z,23.99
2022-10-12T11:58:13.740Z,23.08
2022-10-12T12:00:43.587Z,23.00
2022-10-12T12:03:14.066Z,23.23
2022-10-12T12:05:41.218Z,22.73
2022-10-12T12:08:08.381Z,22.69
2022-10-12T12:10:36.016Z,23.38
2022-10-12T12:13:26.820Z,23.44
2022-10-12T12:15:54.170Z,23.57
2022-10-12T12:18:25.208Z,23.76
2022-10-12T12:21:05.755Z,24.35
2022-10-12T12:23:36.180Z,24.50
2022-10-12T12:26:14.645Z,24.37
2022-10-12T12:28:43.728Z,24.85
2022-10-12T12:31:15.136Z,23.73
2022-10-12T12:33:42.932Z,24.28
2022-10-12T12:36:15.182Z,24.04
2022-10-12T12:38:45.437Z,24.50
2022-10-12T12:41:14.205Z,24.68
2022-10-12T12:43:52.828Z,24.91
2022-10-12T12:46:20.457Z,25.08
2022-10-12T12:48:47.638Z,24.21
2022-10-12T12:51:15.759Z,24.12
2022-10-12T12:53:45.997Z,24.87
2022-10-12T12:56:31.728Z,25.08
2022-10-12T12:59:05.224Z,24.79
2022-10-12T13:01:38.113Z,24.88
2022-10-12T13:04:24.221Z,25.46
2022-10-12T13:07:10.064Z,24.08
2022-10-12T13:09:58.497Z,25.15
2022-10-12T13:12:37.957Z,24.80
2022-10-12T13:15:08.325Z,25.18
2022-10-12T13:17:38.377Z,25.18
2022-10-12T13:20:10.698Z,25.03
2022-10-12T13:22:37.815Z,24.94
2022-10-12T13:25:05.796Z,25.05
2022-10-12T13:27:38.066Z,25.13
2022-10-12T13:30:05.218Z,25.50
2022-10-12T13:32:44.780Z,25.55
2022-10-12T13:35:13.462Z,25.90
2022-10-12T13:37:40.839Z,25.48
2022-10-12T13:40:26.847Z,25.62
2022-10-12T13:42:54.263Z,25.68
2022-10-12T13:45:21.403Z,25.29
2022-10-12T13:47:48.532Z,24.54
2022-10-12T13:50:19.269Z,23.93
2022-10-12T13:52:53.306Z,24.72
2022-10-12T13:55:26.841Z,24.78
2022-10-12T13:57:53.979Z,25.13
2022-10-12T14:00:21.308Z,25.35
2022-10-12T14:02:54.776Z,25.44
2022-10-12T14:05:22.746Z,25.32
2022-10-12T14:07:50.924Z,25.65
2022-10-12T14:10:23.990Z,25.76
2022-10-12T14:12:52.214Z,24.68
2022-10-12T14:15:19.630Z,24.79
2022-10-12T14:17:47.881Z,24.87
2022-10-12T14:20:17.182Z,24.74
2022-10-12T14:22:48.020Z,25.00
2022-10-12T14:25:22.809Z,24.94
2022-10-12T14:27:55.037Z,24.89
2022-10-12T14:30:24.004Z,25.47
2022-10-12T14:32:59.404Z,25.22
2022-10-12T14:35:30.222Z,25.50
2022-10-12T14:37:59.615Z,25.68
2022-10-12T14:40:28.942Z,25.61
2022-10-12T14:43:05.441Z,25.70
2022-10-12T14:45:33.016Z,25.69
2022-10-12T14:48:01.297Z,25.76
2022-10-12T14:50:28.807Z,25.69
2022-10-12T14:52:56.972Z,25.79
2022-10-12T14:55:28.788Z,25.92
2022-10-12T14:57:56.190Z,25.79
2022-10-12T15:00:24.453Z,25.68
2022-10-12T15:02:51.589Z,25.37
2022-10-12T15:05:21.430Z,25.64
2022-10-12T15:07:48.925Z,25.65
2022-10-12T15:10:16.441Z,25.71
2022-10-12T15:12:43.968Z,25.37
2022-10-12T15:15:14.925Z,25.56
2022-10-12T15:17:42.045Z,25.62
2022-10-12T15:20:09.678Z,25.51
2022-10-12T15:22:36.800Z,25.47
2022-10-12T15:25:05.909Z,25.43
2022-10-12T15:27:33.287Z,25.42
2022-10-12T15:30:00.408Z,25.45
2022-10-12T15:32:27.538Z,25.37
2022-10-12T15:34:55.094Z,25.34
2022-10-12T15:37:22.216Z,25.38
2022-10-12T15:39:49.330Z,25.27
2022-10-12T15:42:16.769Z,25.14
2022-10-12T15:44:43.911Z,25.26
2022-10-12T15:47:11.447Z,25.14
2022-10-12T15:49:39.077Z,25.11
2022-10-12T15:52:06.202Z,25.22
2022-10-12T15:54:33.367Z,25.16
2022-10-12T15:57:00.867Z,24.95
2022-10-12T15:59:28.375Z,24.98
2022-10-12T16:01:55.493Z,24.85
2022-10-12T16:04:22.915Z,24.75
2022-10-12T16:06:50.053Z,24.44
2022-10-12T16:09:17.519Z,24.46
2022-10-12T16:11:44.936Z,24.28
2022-10-12T16:14:12.844Z,24.49
2022-10-12T16:16:39.974Z,24.44
2022-10-12T16:19:08.526Z,24.55
2022-10-12T16:21:35.662Z,24.54
2022-10-12T16:24:02.782Z,24.52
2022-10-12T16:26:30.182Z,24.55
2022-10-12T16:28:57.358Z,24.63
2022-10-12T16:31:24.495Z,24.71
2022-10-12T16:33:51.867Z,24.66
2022-10-12T16:36:18.970Z,24.64
2022-10-12T16:38:46.103Z,24.71
2022-10-12T16:41:14.784Z,24.72
2022-10-12T16:43:41.952Z,24.59
2022-10-12T16:46:09.256Z,24.61
2022-10-12T16:48:36.633Z,24.58
2022-10-12T16:51:07.820Z,24.57
2022-10-12T16:53:35.009Z,24.53
2022-10-12T16:56:02.591Z,24.54
2022-10-12T16:58:29.712Z,24.47
2022-10-12T17:00:56.910Z,24.24
2022-10-12T17:03:24.946Z,24.13
2022-10-12T17:05:59.926Z,23.93
2022-10-12T17:08:27.330Z,24.13
2022-10-12T17:10:55.463Z,24.13
2022-10-12T17:13:22.639Z,24.03
2022-10-12T17:15:50.104Z,24.06
2022-10-12T17:18:17.235Z,24.06
2022-10-12T17:20:45.557Z,24.06
2022-10-12T17:23:14.064Z,24.02
2022-10-12T17:25:41.273Z,23.84
2022-10-12T17:28:08.421Z,23.83
2022-10-12T17:30:36.374Z,23.68
2022-10-12T17:33:03.551Z,23.70
2022-10-12T17:35:31.046Z,23.66
2022-10-12T17:37:58.936Z,23.60
2022-10-12T17:40:26.177Z,23.53
2022-10-12T17:42:53.297Z,23.46
2022-10-12T17:45:20.687Z,23.38
2022-10-12T17:47:48.530Z,23.12
2022-10-12T17:50:15.727Z,23.17
2022-10-12T17:52:43.557Z,23.23
2022-10-12T17:55:24.309Z,23.25
2022-10-12T17:57:58.344Z,23.24
2022-10-12T18:00:25.733Z,23.29
2022-10-12T18:02:53.129Z,23.35
2022-10-12T18:05:20.519Z,23.26
2022-10-12T18:07:47.727Z,23.14
2022-10-12T18:10:15.521Z,23.19
2022-10-12T18:12:42.753Z,23.24
2022-10-12T18:15:10.213Z,23.25
2022-10-12T18:17:37.727Z,23.16
2022-10-12T18:20:05.511Z,22.96
2022-10-12T18:22:32.965Z,23.03
2022-10-12T18:25:00.548Z,23.04
2022-10-12T18:27:28.076Z,22.99
2022-10-12T18:29:56.668Z,22.94
2022-10-12T18:32:25.886Z,22.91
2022-10-12T18:34:53.658Z,22.88
2022-10-12T18:37:21.202Z,22.83
2022-10-12T18:39:48.675Z,22.65
2022-10-12T18:42:16.463Z,22.57
2022-10-12T18:44:45.444Z,22.58
2022-10-12T18:47:13.305Z,22.62
2022-10-12T18:49:40.876Z,22.49
2022-10-12T18:52:08.082Z,22.44
2022-10-12T18:54:35.697Z,22.48
2022-10-12T18:57:03.425Z,22.57
2022-10-12T18:59:31.382Z,22.56
2022-10-12T19:02:01.894Z,22.41
2022-10-12T19:04:29.476Z,22.48
2022-10-12T19:06:57.925Z,22.38
2022-10-12T19:09:26.953Z,22.30
2022-10-12T19:11:54.439Z,22.25
2022-10-12T19:14:22.045Z,22.46
2022-10-12T19:16:50.246Z,22.28
2022-10-12T19:19:21.097Z,22.32
2022-10-12T19:21:52.484Z,22.35
2022-10-12T19:24:21.233Z,22.24
2022-10-12T19:26:49.059Z,22.02
2022-10-12T19:29:16.619Z,22.05
2022-10-12T19:31:46.161Z,22.05
2022-10-12T19:34:14.279Z,22.18
2022-10-12T19:36:41.744Z,22.04
2022-10-12T19:39:10.642Z,21.98
2022-10-12T19:41:38.276Z,21.91
2022-10-12T19:44:05.879Z,22.11
2022-10-12T19:46:34.955Z,22.10
2022-10-12T19:49:02.488Z,22.15
2022-10-12T19:51:31.752Z,22.15
2022-10-12T19:54:01.583Z,22.01
2022-10-12T19:56:29.225Z,22.09
2022-10-12T19:58:58.161Z,22.11
2022-10-12T20:01:27.001Z,22.17
2022-10-12T20:03:54.529Z,22.14
2022-10-12T20:06:23.684Z,22.11
2022-10-12T20:08:51.502Z,22.20
2022-10-12T20:11:22.668Z,22.20
2022-10-12T20:13:51.653Z,22.23
2022-10-12T20:16:19.962Z,22.10
2022-10-12T20:18:47.492Z,22.12
2022-10-12T20:21:15.652Z,22.11
2022-10-12T20:23:43.662Z,22.09
2022-10-12T20:26:12.745Z,22.08
2022-10-12T20:28:39.977Z,22.15
2022-10-12T20:31:07.874Z,22.15
2022-10-12T20:33:35.714Z,22.20
2022-10-12T20:36:03.276Z,22.13
2022-10-12T20:38:30.695Z,22.15
2022-10-12T20:41:03.747Z,22.08
2022-10-12T20:43:31.266Z,22.08
2022-10-12T20:46:01.908Z,22.14
2022-10-12T20:48:30.888Z,22.08
2022-10-12T20:50:58.576Z,21.93
2022-10-12T20:53:25.725Z,21.94
2022-10-12T20:55:53.774Z,22.01
2022-10-12T20:58:25.558Z,22.02
2022-10-12T21:01:08.571Z,22.06
2022-10-12T21:03:36.821Z,22.00
2022-10-12T21:06:07.942Z,21.80
2022-10-12T21:08:35.577Z,21.36
2022-10-12T21:11:02.989Z,21.89
2022-10-12T21:13:33.912Z,21.91
2022-10-12T21:16:01.357Z,21.75
2022-10-12T21:18:32.704Z,21.73
2022-10-12T21:21:04.373Z,21.68
2022-10-12T21:23:31.573Z,21.79
2022-10-12T21:25:58.693Z,21.81
2022-10-12T21:28:26.135Z,21.74
2022-10-12T21:30:53.270Z,21.73
2022-10-12T21:33:20.461Z,21.70
2022-10-12T21:35:47.837Z,21.73
2022-10-12T21:38:19.683Z,21.64
2022-10-12T21:40:46.810Z,21.60
2022-10-12T21:43:14.221Z,21.66
2022-10-12T21:45:41.365Z,21.67
2022-10-12T21:48:08.469Z,21.58
2022-10-12T21:50:35.907Z,21.66
2022-10-12T21:53:02.997Z,21.71
2022-10-12T21:55:32.099Z,21.72
2022-10-12T21:57:59.513Z,21.71
2022-10-12T22:00:26.701Z,21.61
2022-10-12T22:02:55.349Z,21.55
2022-10-12T22:05:22.713Z,21.48
2022-10-12T22:07:49.836Z,21.47
2022-10-12T22:10:17.231Z,21.32
2022-10-12T22:12:44.351Z,21.24
2022-10-12T22:15:12.039Z,21.41
2022-10-12T22:17:39.428Z,21.45
2022-10-12T22:20:06.761Z,21.51
2022-10-12T22:22:35.902Z,21.33
2022-10-12T22:25:03.262Z,21.53
2022-10-12T22:27:34.794Z,21.55
2022-10-12T22:30:01.990Z,21.35
2022-10-12T22:32:30.166Z,21.27
2022-10-12T22:34:59.116Z,21.28
2022-10-12T22:37:26.456Z,21.29
2022-10-12T22:39:53.888Z,21.27
2022-10-12T22:42:21.216Z,21.34
2022-10-12T22:44:48.514Z,21.25
2022-10-12T22:47:15.954Z,21.24
2022-10-12T22:49:43.066Z,21.25
2022-10-12T22:52:10.163Z,21.16
2022-10-12T22:54:38.061Z,21.21
2022-10-12T22:57:05.327Z,21.27
2022-10-12T22:59:34.919Z,21.26
2022-10-12T23:02:02.288Z,21.20
2022-10-12T23:04:30.150Z,21.06
2022-10-12T23:06:57.253Z,20.90
2022-10-12T23:09:26.086Z,20.85
2022-10-12T23:11:54.404Z,20.87
2022-10-12T23:14:21.521Z,20.93
2022-10-12T23:16:48.910Z,20.98
2022-10-12T23:19:16.030Z,21.07
2022-10-12T23:21:43.363Z,21.07
2022-10-12T23:24:10.747Z,21.08
2022-10-12T23:26:37.870Z,20.98
2022-10-12T23:29:04.981Z,20.97
2022-10-12T23:31:33.524Z,21.07
2022-10-12T23:34:01.570Z,21.06
2022-10-12T23:36:29.039Z,21.10
2022-10-12T23:38:56.671Z,21.18
2022-10-12T23:41:23.809Z,21.15
2022-10-12T23:43:50.934Z,21.12
2022-10-12T23:46:18.331Z,21.06
2022-10-12T23:48:45.454Z,21.08
2022-10-12T23:51:12.567Z,21.16
2022-10-12T23:53:42.520Z,21.17
2022-10-12T23:56:09.773Z,21.07
2022-10-12T23:58:36.867Z,21.17
